createdAt,value
2019-02-25T00:00:58.062Z,18.80
2019-02-25T00:03:32.982Z,16.40
2019-02-25T00:06:05.339Z,17.60
2019-02-25T00:08:37.695Z,17.90
2019-02-25T00:11:09.927Z,15.40
2019-02-25T00:13:42.209Z,16.63
2019-02-25T00:16:14.383Z,16.73
2019-02-25T00:18:48.045Z,17.57
2019-02-25T00:21:20.143Z,18.20
2019-02-25T00:23:53.484Z,17.77
2019-02-25T00:26:26.751Z,16.63
2019-02-25T00:28:58.916Z,16.57
2019-02-25T00:31:30.944Z,16.90
2019-02-25T00:34:04.144Z,16.70
2019-02-25T00:36:36.085Z,16.87
2019-02-25T00:39:08.879Z,17.57
2019-02-25T00:41:42.055Z,21.40
2019-02-25T00:44:14.030Z,16.30
2019-02-25T00:46:46.085Z,17.93
2019-02-25T00:49:19.305Z,18.10
2019-02-25T00:51:52.946Z,16.50
2019-02-25T00:54:26.618Z,16.00
2019-02-25T00:56:58.828Z,15.27
2019-02-25T00:59:31.121Z,17.50
2019-02-25T01:02:06.489Z,16.03
2019-02-25T01:04:39.871Z,15.00
2019-02-25T01:07:13.056Z,14.47
2019-02-25T01:09:45.026Z,16.17
2019-02-25T01:12:18.444Z,16.23
2019-02-25T01:14:51.661Z,15.90
2019-02-25T01:17:23.805Z,14.00
2019-02-25T01:19:55.838Z,14.30
2019-02-25T01:22:27.993Z,17.40
2019-02-25T01:25:02.268Z,14.97
2019-02-25T01:27:34.839Z,15.03
2019-02-25T01:30:08.927Z,16.03
2019-02-25T01:32:43.356Z,18.10
2019-02-25T01:35:15.474Z,20.40
2019-02-25T01:37:49.691Z,15.57
2019-02-25T01:40:22.828Z,19.50
2019-02-25T01:42:55.817Z,16.50
2019-02-25T01:45:29.888Z,16.23
2019-02-25T01:48:03.957Z,16.30
2019-02-25T01:50:36.986Z,15.67
2019-02-25T01:53:08.810Z,16.53
2019-02-25T01:55:42.700Z,15.97
2019-02-25T01:58:15.908Z,17.50
2019-02-25T02:00:50.409Z,15.17
2019-02-25T02:03:24.539Z,18.17
2019-02-25T02:05:59.294Z,16.30
2019-02-25T02:08:32.539Z,17.60
2019-02-25T02:11:05.704Z,16.97
2019-02-25T02:13:37.739Z,14.77
2019-02-25T02:16:11.186Z,15.57
2019-02-25T02:18:44.108Z,16.37
2019-02-25T02:21:18.548Z,18.23
2019-02-25T02:23:54.045Z,18.33
2019-02-25T02:26:27.174Z,16.67
2019-02-25T02:28:59.078Z,16.97
2019-02-25T02:31:30.950Z,17.87
2019-02-25T02:34:04.042Z,15.80
2019-02-25T02:36:37.120Z,13.23
2019-02-25T02:39:10.518Z,12.40
2019-02-25T02:42:17.118Z,16.93
2019-02-25T02:44:52.896Z,14.77
2019-02-25T02:47:39.513Z,15.57
2019-02-25T02:50:15.589Z,13.63
2019-02-25T02:52:48.618Z,13.70
2019-02-25T02:55:21.690Z,15.43
2019-02-25T02:57:56.954Z,14.93
2019-02-25T03:00:29.855Z,13.90
2019-02-25T03:03:01.708Z,12.97
2019-02-25T03:05:34.974Z,13.57
2019-02-25T03:08:07.086Z,13.27
2019-02-25T03:10:39.976Z,16.00
2019-02-25T03:13:16.092Z,12.70
2019-02-25T03:15:49.027Z,14.43
2019-02-25T03:18:21.465Z,13.30
2019-02-25T03:20:55.887Z,15.03
2019-02-25T03:23:33.165Z,12.50
2019-02-25T03:26:05.063Z,14.17
2019-02-25T03:28:39.405Z,12.90
2019-02-25T03:31:14.428Z,13.53
2019-02-25T03:33:48.759Z,16.10
2019-02-25T03:36:24.156Z,12.90
2019-02-25T03:38:58.345Z,14.73
2019-02-25T03:41:31.567Z,12.90
2019-02-25T03:44:04.772Z,14.63
2019-02-25T03:46:39.119Z,13.43
2019-02-25T03:49:13.496Z,13.17
2019-02-25T03:51:46.693Z,13.07
2019-02-25T03:54:18.691Z,14.07
2019-02-25T03:56:53.059Z,12.73
2019-02-25T03:59:27.512Z,14.73
2019-02-25T04:02:00.649Z,14.60
2019-02-25T04:04:32.567Z,15.80
2019-02-25T04:07:04.458Z,16.87
2019-02-25T04:09:36.326Z,16.63
2019-02-25T04:12:10.909Z,14.40
2019-02-25T04:14:43.810Z,18.13
2019-02-25T04:17:17.869Z,15.30
2019-02-25T04:19:49.841Z,16.47
2019-02-25T04:22:24.147Z,15.27
2019-02-25T04:24:57.378Z,12.10
2019-02-25T04:27:32.097Z,14.40
2019-02-25T04:30:15.246Z,14.17
2019-02-25T04:32:58.443Z,13.37
2019-02-25T04:35:42.003Z,13.20
2019-02-25T04:38:13.909Z,12.97
2019-02-25T04:40:45.827Z,14.50
2019-02-25T04:43:17.705Z,14.73
2019-02-25T04:45:49.623Z,14.77
2019-02-25T04:48:22.463Z,13.67
2019-02-25T04:50:54.291Z,13.27
2019-02-25T04:53:26.227Z,14.70
2019-02-25T04:55:58.138Z,14.13
2019-02-25T04:58:30.018Z,13.00
2019-02-25T05:01:07.837Z,13.13
2019-02-25T05:03:52.492Z,15.30
2019-02-25T05:06:29.666Z,15.53
2019-02-25T05:09:01.626Z,12.93
2019-02-25T05:11:38.612Z,16.17
2019-02-25T05:14:12.638Z,16.63
2019-02-25T05:16:44.600Z,15.27
2019-02-25T05:19:18.520Z,14.17
2019-02-25T05:21:50.411Z,15.17
2019-02-25T05:24:22.261Z,15.23
2019-02-25T05:26:54.149Z,15.17
2019-02-25T05:29:26.203Z,13.07
2019-02-25T05:31:59.135Z,14.20
2019-02-25T05:34:31.100Z,12.63
2019-02-25T05:37:02.945Z,16.23
2019-02-25T05:39:34.880Z,13.70
2019-02-25T05:42:06.827Z,15.40
2019-02-25T05:44:38.694Z,12.23
2019-02-25T05:47:11.608Z,13.90
2019-02-25T05:49:43.423Z,12.20
2019-02-25T05:52:15.337Z,13.07
2019-02-25T05:54:47.215Z,16.23
2019-02-25T05:57:19.105Z,13.03
2019-02-25T05:59:50.932Z,18.37
2019-02-25T06:02:28.368Z,18.27
2019-02-25T06:05:01.757Z,14.40
2019-02-25T06:07:33.823Z,16.30
2019-02-25T06:10:06.275Z,14.30
2019-02-25T06:12:38.266Z,16.07
2019-02-25T06:15:12.511Z,13.90
2019-02-25T06:17:44.474Z,26.33
2019-02-25T06:20:16.338Z,30.10
2019-02-25T06:22:48.298Z,22.73
2019-02-25T06:25:20.191Z,21.23
2019-02-25T06:27:52.345Z,21.37
2019-02-25T06:30:24.279Z,23.50
2019-02-25T06:32:56.235Z,19.57
2019-02-25T06:35:28.148Z,19.13
2019-02-25T06:38:00.345Z,26.23
2019-02-25T06:40:32.377Z,25.90
2019-02-25T06:43:04.361Z,26.63
2019-02-25T06:45:36.338Z,25.37
2019-02-25T06:48:08.303Z,22.80
2019-02-25T06:50:40.298Z,22.43
2019-02-25T06:53:12.261Z,25.10
2019-02-25T06:55:44.180Z,26.87
2019-02-25T06:58:16.993Z,21.93
2019-02-25T07:00:48.913Z,16.40
2019-02-25T07:03:20.878Z,18.27
2019-02-25T07:06:14.514Z,15.70
2019-02-25T07:09:11.723Z,18.40
2019-02-25T07:11:53.745Z,16.50
2019-02-25T07:14:37.186Z,18.60
2019-02-25T07:17:27.935Z,17.33
2019-02-25T07:20:09.553Z,19.00
2019-02-25T07:22:46.632Z,17.73
2019-02-25T07:25:30.187Z,17.43
2019-02-25T07:28:27.667Z,17.60
2019-02-25T07:31:24.143Z,16.33
2019-02-25T07:34:13.589Z,18.33
2019-02-25T07:36:56.773Z,17.07
2019-02-25T07:39:46.115Z,14.47
2019-02-25T07:42:34.521Z,16.67
2019-02-25T07:45:45.994Z,21.00
2019-02-25T07:48:42.738Z,17.50
2019-02-25T07:51:36.282Z,22.20
2019-02-25T07:54:27.038Z,14.23
2019-02-25T07:57:29.933Z,14.70
2019-02-25T08:00:08.753Z,16.53
2019-02-25T08:02:53.802Z,22.40
2019-02-25T08:05:50.674Z,17.93
2019-02-25T08:08:38.389Z,18.43
2019-02-25T08:11:21.852Z,21.07
2019-02-25T08:14:01.560Z,24.50
2019-02-25T08:16:48.376Z,21.03
2019-02-25T08:19:41.879Z,19.87
2019-02-25T08:22:31.337Z,16.90
2019-02-25T08:25:13.093Z,19.03
2019-02-25T08:28:06.610Z,18.27
2019-02-25T08:30:49.848Z,19.13
2019-02-25T08:33:40.574Z,15.47
2019-02-25T08:37:11.205Z,12.37
2019-02-25T08:39:56.937Z,15.10
2019-02-25T08:42:38.335Z,13.63
2019-02-25T08:45:32.082Z,12.90
2019-02-25T08:48:08.705Z,12.73
2019-02-25T08:50:40.584Z,13.50
2019-02-25T08:53:12.472Z,12.80
2019-02-25T08:55:44.306Z,13.87
2019-02-25T08:58:17.326Z,13.07
2019-02-25T09:00:49.186Z,13.57
2019-02-25T09:03:21.048Z,13.70
2019-02-25T09:05:52.959Z,16.20
2019-02-25T09:08:24.775Z,15.03
2019-02-25T09:10:56.594Z,17.80
2019-02-25T09:13:28.518Z,14.60
2019-02-25T09:16:00.337Z,14.80
2019-02-25T09:18:32.357Z,15.77
2019-02-25T09:21:04.285Z,15.27
2019-02-25T09:23:36.190Z,20.67
2019-02-25T09:26:08.025Z,14.93
2019-02-25T09:28:40.980Z,17.20
2019-02-25T09:31:12.856Z,16.30
2019-02-25T09:33:44.747Z,14.07
2019-02-25T09:36:16.636Z,20.30
2019-02-25T09:38:48.483Z,15.07
2019-02-25T09:41:29.474Z,15.27
2019-02-25T09:43:53.847Z,19.20
2019-02-25T09:46:26.198Z,18.90
2019-02-25T09:48:58.116Z,19.53
2019-02-25T09:51:29.993Z,18.43
2019-02-25T09:54:01.887Z,16.53
2019-02-25T09:56:33.722Z,17.83
2019-02-25T09:59:05.612Z,18.83
2019-02-25T10:01:37.594Z,17.57
2019-02-25T10:04:09.537Z,15.57
2019-02-25T10:06:42.294Z,16.53
2019-02-25T10:09:14.110Z,17.23
2019-02-25T10:11:45.991Z,17.37
2019-02-25T10:14:17.925Z,16.23
2019-02-25T10:16:49.783Z,15.80
2019-02-25T10:19:21.691Z,15.43
2019-02-25T10:21:53.584Z,20.73
2019-02-25T10:24:25.459Z,17.67
2019-02-25T10:26:57.404Z,20.27
2019-02-25T10:29:29.243Z,21.03
2019-02-25T10:32:02.592Z,16.80
2019-02-25T10:34:34.507Z,14.60
2019-02-25T10:37:06.347Z,16.20
2019-02-25T10:39:38.132Z,14.03
2019-02-25T10:42:09.974Z,14.90
2019-02-25T10:44:41.983Z,15.53
2019-02-25T10:47:15.622Z,15.73
2019-02-25T10:49:47.402Z,14.80
2019-02-25T10:52:19.259Z,13.57
2019-02-25T10:54:52.453Z,15.87
2019-02-25T10:57:27.185Z,14.00
2019-02-25T10:59:58.758Z,17.60
2019-02-25T11:02:30.725Z,14.20
2019-02-25T11:05:02.601Z,13.67
2019-02-25T11:07:34.920Z,12.33
2019-02-25T11:10:22.380Z,12.17
2019-02-25T11:12:55.497Z,13.47
2019-02-25T11:15:28.999Z,14.63
2019-02-25T11:18:00.961Z,15.80
2019-02-25T11:20:33.419Z,14.17
2019-02-25T11:23:05.883Z,13.83
2019-02-25T11:25:37.791Z,13.67
2019-02-25T11:28:22.673Z,14.30
2019-02-25T11:30:44.866Z,13.37
2019-02-25T11:33:16.636Z,12.47
2019-02-25T11:35:48.511Z,12.83
2019-02-25T11:38:20.277Z,12.23
2019-02-25T11:40:52.175Z,11.20
2019-02-25T11:43:24.116Z,13.73
2019-02-25T11:45:55.903Z,11.10
2019-02-25T11:48:27.701Z,10.90
2019-02-25T11:50:59.493Z,11.87
2019-02-25T11:53:31.391Z,14.80
2019-02-25T11:56:03.206Z,9.73
2019-02-25T11:58:35.067Z,11.73
2019-02-25T12:01:06.989Z,10.63
2019-02-25T12:03:38.877Z,11.60
2019-02-25T12:06:10.783Z,10.93
2019-02-25T12:08:42.962Z,11.67
2019-02-25T12:11:14.835Z,11.00
2019-02-25T12:13:46.657Z,8.60
2019-02-25T12:16:18.543Z,10.03
2019-02-25T12:18:50.416Z,9.00
2019-02-25T12:21:22.265Z,10.60
2019-02-25T12:23:54.137Z,10.40
2019-02-25T12:26:26.081Z,9.83
2019-02-25T12:28:57.955Z,10.20
2019-02-25T12:31:29.751Z,9.27
2019-02-25T12:34:01.617Z,8.77
2019-02-25T12:36:33.502Z,10.40
2019-02-25T12:39:07.284Z,8.97
2019-02-25T12:41:40.638Z,9.23
2019-02-25T12:44:12.459Z,8.43
2019-02-25T12:46:44.349Z,8.60
2019-02-25T12:49:16.189Z,7.70
2019-02-25T12:51:47.991Z,9.33
2019-02-25T12:54:19.862Z,10.63
2019-02-25T12:56:51.749Z,8.83
2019-02-25T12:59:23.561Z,8.83
2019-02-25T13:01:56.434Z,7.13
2019-02-25T13:04:28.243Z,8.77
2019-02-25T13:07:00.128Z,8.33
2019-02-25T13:09:32.007Z,7.53
2019-02-25T13:12:03.891Z,5.00
2019-02-25T13:14:35.740Z,7.80
2019-02-25T13:17:07.624Z,7.40
2019-02-25T13:19:40.016Z,6.33
2019-02-25T13:22:11.832Z,8.53
2019-02-25T13:24:43.648Z,5.10
2019-02-25T13:27:15.528Z,4.83
2019-02-25T13:29:49.529Z,5.33
2019-02-25T13:32:20.971Z,6.80
2019-02-25T13:34:52.832Z,3.77
2019-02-25T13:37:27.309Z,6.60
2019-02-25T13:40:01.684Z,5.10
2019-02-25T13:42:35.502Z,7.57
2019-02-25T13:45:08.823Z,5.87
2019-02-25T13:47:42.004Z,6.37
2019-02-25T13:50:15.379Z,7.70
2019-02-25T13:52:50.096Z,6.87
2019-02-25T13:55:23.703Z,7.20
2019-02-25T13:57:57.611Z,6.17
2019-02-25T14:00:32.339Z,4.83
2019-02-25T14:03:07.779Z,5.40
2019-02-25T14:05:40.810Z,4.60
2019-02-25T14:08:13.868Z,5.73
2019-02-25T14:10:45.916Z,5.47
2019-02-25T14:13:17.776Z,6.23
2019-02-25T14:15:49.642Z,8.00
2019-02-25T14:18:22.586Z,7.00
2019-02-25T14:20:54.508Z,5.03
2019-02-25T14:23:29.199Z,5.63
2019-02-25T14:26:02.190Z,10.67
2019-02-25T14:28:35.025Z,5.97
2019-02-25T14:31:08.067Z,4.87
2019-02-25T14:33:41.608Z,5.70
2019-02-25T14:36:15.883Z,6.83
2019-02-25T14:38:51.346Z,6.90
2019-02-25T14:41:27.173Z,4.80
2019-02-25T14:44:00.554Z,6.40
2019-02-25T14:46:33.681Z,5.23
2019-02-25T14:49:08.210Z,5.77
2019-02-25T14:51:41.541Z,5.70
2019-02-25T14:54:16.456Z,4.00
2019-02-25T14:56:51.907Z,4.70
2019-02-25T14:59:25.417Z,6.33
2019-02-25T15:02:01.505Z,4.73
2019-02-25T15:04:37.418Z,3.83
2019-02-25T15:07:10.803Z,4.90
2019-02-25T15:09:45.714Z,5.60
2019-02-25T15:12:20.762Z,3.77
2019-02-25T15:14:58.050Z,3.00
2019-02-25T15:17:33.216Z,4.63
2019-02-25T15:20:06.517Z,3.83
2019-02-25T15:22:42.463Z,5.27
2019-02-25T15:25:16.451Z,4.80
2019-02-25T15:27:49.343Z,3.80
2019-02-25T15:30:27.457Z,5.07
2019-02-25T15:32:59.110Z,5.07
2019-02-25T15:35:35.171Z,6.10
2019-02-25T15:38:08.963Z,3.33
2019-02-25T15:40:42.570Z,4.60
2019-02-25T15:43:17.548Z,4.10
2019-02-25T15:45:50.278Z,4.90
2019-02-25T15:48:23.892Z,4.67
2019-02-25T15:50:58.645Z,3.60
2019-02-25T15:53:31.099Z,5.77
2019-02-25T15:56:07.649Z,4.00
2019-02-25T15:58:40.708Z,3.70
2019-02-25T16:01:13.888Z,3.13
2019-02-25T16:03:48.910Z,3.50
2019-02-25T16:06:27.024Z,4.53
2019-02-25T16:08:59.179Z,4.57
2019-02-25T16:11:33.290Z,3.17
2019-02-25T16:14:07.308Z,4.93
2019-02-25T16:16:40.502Z,3.63
2019-02-25T16:19:13.739Z,3.43
2019-02-25T16:21:48.400Z,3.90
2019-02-25T16:24:24.419Z,4.00
2019-02-25T16:26:58.406Z,5.00
2019-02-25T16:29:31.961Z,4.60
2019-02-25T16:32:06.604Z,4.73
2019-02-25T16:34:40.473Z,7.80
2019-02-25T16:37:14.087Z,3.77
2019-02-25T16:39:48.148Z,4.13
2019-02-25T16:42:25.915Z,6.20
2019-02-25T16:45:01.331Z,5.63
2019-02-25T16:47:37.707Z,5.07
2019-02-25T16:50:11.817Z,8.67
2019-02-25T16:52:47.339Z,8.47
2019-02-25T16:55:22.646Z,7.10
2019-02-25T16:57:56.000Z,7.43
2019-02-25T17:00:32.426Z,5.70
2019-02-25T17:03:06.601Z,8.53
2019-02-25T17:05:42.901Z,8.13
2019-02-25T17:08:19.291Z,9.93
2019-02-25T17:10:53.447Z,11.27
2019-02-25T17:13:26.592Z,10.47
2019-02-25T17:16:02.735Z,9.73
2019-02-25T17:18:33.939Z,9.93
2019-02-25T17:21:08.436Z,9.23
2019-02-25T17:23:42.825Z,7.20
2019-02-25T17:26:17.317Z,8.77
2019-02-25T17:28:48.730Z,10.97
2019-02-25T17:31:32.351Z,8.53
2019-02-25T17:34:09.945Z,8.13
2019-02-25T17:36:44.751Z,8.60
2019-02-25T17:39:18.594Z,9.70
2019-02-25T17:41:51.675Z,10.83
2019-02-25T17:44:28.369Z,10.20
2019-02-25T17:47:04.358Z,9.30
2019-02-25T17:49:38.054Z,10.93
2019-02-25T17:52:12.321Z,13.27
2019-02-25T17:54:45.110Z,18.30
2019-02-25T17:57:17.691Z,19.20
2019-02-25T17:59:52.848Z,23.20
2019-02-25T18:02:27.156Z,19.63
2019-02-25T18:05:00.700Z,17.23
2019-02-25T18:07:33.780Z,25.23
2019-02-25T18:10:08.240Z,17.47
2019-02-25T18:12:41.804Z,16.57
2019-02-25T18:15:17.800Z,14.13
2019-02-25T18:17:51.919Z,15.33
2019-02-25T18:20:25.148Z,12.77
2019-02-25T18:22:57.254Z,11.30
2019-02-25T18:25:30.379Z,14.73
2019-02-25T18:28:24.051Z,17.13
2019-02-25T18:30:59.669Z,15.53
2019-02-25T18:33:31.974Z,15.47
2019-02-25T18:36:13.156Z,14.60
2019-02-25T18:38:46.894Z,16.50
2019-02-25T18:41:21.548Z,17.03
2019-02-25T18:43:57.169Z,12.90
2019-02-25T18:46:36.879Z,11.43
2019-02-25T18:49:09.613Z,12.27
2019-02-25T18:51:43.562Z,12.60
2019-02-25T18:54:16.935Z,12.80
2019-02-25T18:56:50.068Z,11.73
2019-02-25T18:59:34.291Z,14.47
2019-02-25T19:02:32.010Z,12.53
2019-02-25T19:05:14.008Z,11.43
2019-02-25T19:07:57.563Z,14.10
2019-02-25T19:10:31.215Z,13.17
2019-02-25T19:13:04.042Z,13.47
2019-02-25T19:15:37.442Z,15.40
2019-02-25T19:18:12.719Z,16.77
2019-02-25T19:20:47.608Z,16.53
2019-02-25T19:23:20.457Z,14.40
2019-02-25T19:25:56.106Z,15.73
2019-02-25T19:28:30.754Z,16.87
2019-02-25T19:31:08.142Z,21.73
2019-02-25T19:33:37.898Z,21.10
2019-02-25T19:36:09.799Z,17.47
2019-02-25T19:38:44.118Z,18.57
2019-02-25T19:41:17.646Z,16.03
2019-02-25T19:43:58.657Z,16.57
2019-02-25T19:46:24.786Z,15.90
2019-02-25T19:48:57.117Z,16.50
2019-02-25T19:51:29.783Z,16.90
2019-02-25T19:54:02.590Z,18.03
2019-02-25T19:56:35.718Z,16.27
2019-02-25T19:59:08.050Z,17.43
2019-02-25T20:01:40.487Z,17.50
2019-02-25T20:04:14.139Z,18.83
2019-02-25T20:06:47.150Z,17.67
2019-02-25T20:09:21.405Z,22.33
2019-02-25T20:11:54.628Z,19.30
2019-02-25T20:14:26.860Z,19.17
2019-02-25T20:17:02.769Z,18.13
2019-02-25T20:19:39.016Z,16.27
2019-02-25T20:22:12.030Z,15.07
2019-02-25T20:24:46.592Z,16.10
2019-02-25T20:27:20.859Z,14.17
2019-02-25T20:29:53.308Z,15.10
2019-02-25T20:32:25.146Z,16.50
2019-02-25T20:34:58.811Z,15.93
2019-02-25T20:37:33.863Z,14.33
2019-02-25T20:40:06.463Z,14.57
2019-02-25T20:42:39.865Z,14.20
2019-02-25T20:45:19.128Z,14.43
2019-02-25T20:47:50.121Z,12.80
2019-02-25T20:50:23.513Z,12.43
2019-02-25T20:52:57.781Z,13.40
2019-02-25T20:55:33.884Z,15.33
2019-02-25T20:58:06.887Z,14.60
2019-02-25T21:00:39.795Z,12.93
2019-02-25T21:03:16.001Z,14.90
2019-02-25T21:05:47.560Z,13.73
2019-02-25T21:08:21.309Z,14.37
2019-02-25T21:10:53.787Z,11.57
2019-02-25T21:13:29.286Z,14.40
2019-02-25T21:16:02.540Z,14.23
2019-02-25T21:18:34.453Z,14.07
2019-02-25T21:21:10.101Z,13.97
2019-02-25T21:23:41.509Z,13.47
2019-02-25T21:26:13.657Z,14.17
2019-02-25T21:28:45.848Z,14.77
2019-02-25T21:31:20.932Z,12.73
2019-02-25T21:33:54.238Z,16.87
2019-02-25T21:36:27.715Z,15.33
2019-02-25T21:39:01.337Z,13.37
2019-02-25T21:41:37.011Z,13.47
2019-02-25T21:44:09.262Z,13.17
2019-02-25T21:46:43.749Z,13.27
2019-02-25T21:49:17.012Z,11.00
2019-02-25T21:51:49.307Z,18.50
2019-02-25T21:54:22.324Z,14.50
2019-02-25T21:56:54.447Z,13.80
2019-02-25T21:59:26.627Z,13.67
2019-02-25T22:02:01.586Z,15.17
2019-02-25T22:04:33.733Z,15.67
2019-02-25T22:07:05.770Z,16.47
2019-02-25T22:09:41.344Z,17.63
2019-02-25T22:12:13.246Z,18.30
2019-02-25T22:14:46.096Z,17.40
2019-02-25T22:17:20.800Z,19.63
2019-02-25T22:19:53.339Z,18.73
2019-02-25T22:22:26.921Z,17.73
2019-02-25T22:25:04.092Z,21.13
2019-02-25T22:27:37.372Z,17.43
2019-02-25T22:30:12.898Z,20.40
2019-02-25T22:32:45.153Z,16.83
2019-02-25T22:35:18.439Z,19.37
2019-02-25T22:37:52.696Z,17.87
2019-02-25T22:40:24.122Z,17.70
2019-02-25T22:42:56.801Z,19.43
2019-02-25T22:45:31.444Z,13.97
2019-02-25T22:48:03.811Z,18.70
2019-02-25T22:50:37.737Z,16.57
2019-02-25T22:53:11.295Z,19.63
2019-02-25T22:55:44.786Z,16.30
2019-02-25T22:58:17.130Z,14.80
2019-02-25T23:00:58.339Z,16.47
2019-02-25T23:03:29.951Z,18.27
2019-02-25T23:06:01.959Z,16.97
2019-02-25T23:08:34.152Z,14.50
2019-02-25T23:11:09.972Z,16.00
2019-02-25T23:13:42.774Z,17.43
2019-02-25T23:16:15.620Z,19.20
2019-02-25T23:18:49.056Z,16.47
2019-02-25T23:21:23.857Z,16.63
2019-02-25T23:23:57.703Z,19.13
2019-02-25T23:26:30.438Z,18.87
2019-02-25T23:29:02.428Z,17.97
2019-02-25T23:31:34.530Z,17.27
2019-02-25T23:34:08.007Z,16.67
2019-02-25T23:36:42.865Z,20.77
2019-02-25T23:39:17.112Z,17.23
2019-02-25T23:41:50.325Z,17.43
2019-02-25T23:44:24.685Z,18.07
2019-02-25T23:46:59.699Z,17.07
2019-02-25T23:49:30.942Z,14.33
2019-02-25T23:52:04.311Z,16.33
2019-02-25T23:54:36.339Z,12.43
2019-02-25T23:57:08.264Z,14.07
2019-02-25T23:59:42.484Z,16.73
